createdAt,value
2022-08-02T00:00:10.630Z,3.95
2022-08-02T00:02:38.002Z,4.57
2022-08-02T00:05:05.857Z,3.95
2022-08-02T00:07:39.009Z,4.38
2022-08-02T00:10:11.188Z,3.97
2022-08-02T00:12:38.912Z,4.35
2022-08-02T00:15:16.909Z,4.22
2022-08-02T00:17:46.394Z,4.30
2022-08-02T00:20:20.695Z,4.35
2022-08-02T00:22:48.166Z,4.53
2022-08-02T00:25:17.494Z,4.30
2022-08-02T00:27:44.672Z,3.85
2022-08-02T00:30:13.247Z,4.05
2022-08-02T00:32:40.587Z,4.30
2022-08-02T00:35:09.947Z,3.90
2022-08-02T00:37:39.897Z,4.00
2022-08-02T00:40:08.637Z,4.20
2022-08-02T00:42:36.728Z,4.47
2022-08-02T00:45:03.747Z,4.20
2022-08-02T00:47:30.906Z,5.18
2022-08-02T00:50:00.141Z,4.50
2022-08-02T00:52:29.721Z,4.20
2022-08-02T00:54:57.225Z,4.28
2022-08-02T00:57:24.789Z,4.60
2022-08-02T00:59:51.938Z,4.07
2022-08-02T01:02:22.548Z,4.28
2022-08-02T01:04:51.906Z,4.60
2022-08-02T01:07:21.469Z,5.05
2022-08-02T01:09:48.630Z,3.90
2022-08-02T01:12:15.730Z,4.25
2022-08-02T01:14:51.002Z,4.57
2022-08-02T01:17:23.032Z,4.22
2022-08-02T01:20:04.675Z,4.60
2022-08-02T01:23:03.190Z,4.65
2022-08-02T01:26:17.047Z,4.30
2022-08-02T01:28:52.092Z,4.70
2022-08-02T01:31:29.522Z,5.10
2022-08-02T01:34:18.526Z,4.43
2022-08-02T01:37:03.860Z,4.70
2022-08-02T01:39:32.540Z,4.40
2022-08-02T01:41:59.936Z,4.65
2022-08-02T01:44:27.780Z,4.38
2022-08-02T01:46:56.568Z,4.65
2022-08-02T01:49:23.347Z,4.38
2022-08-02T01:52:09.268Z,4.53
2022-08-02T01:54:38.938Z,4.60
2022-08-02T01:57:06.376Z,4.60
2022-08-02T01:59:33.444Z,4.18
2022-08-02T02:02:00.799Z,4.57
2022-08-02T02:04:29.129Z,4.75
2022-08-02T02:06:56.950Z,5.47
2022-08-02T02:09:25.719Z,10.18
2022-08-02T02:12:11.423Z,16.42
2022-08-02T02:14:39.648Z,9.70
2022-08-02T02:17:07.044Z,5.90
2022-08-02T02:19:34.599Z,5.45
2022-08-02T02:22:01.638Z,5.35
2022-08-02T02:24:30.115Z,5.40
2022-08-02T02:27:02.060Z,5.15
2022-08-02T02:29:29.560Z,4.95
2022-08-02T02:31:56.348Z,5.03
2022-08-02T02:34:33.754Z,4.97
2022-08-02T02:37:05.492Z,4.55
2022-08-02T02:39:32.579Z,4.93
2022-08-02T02:42:03.670Z,4.65
2022-08-02T02:44:33.896Z,4.70
2022-08-02T02:47:01.060Z,4.80
2022-08-02T02:49:30.282Z,4.82
2022-08-02T02:51:57.852Z,4.93
2022-08-02T02:54:32.616Z,4.60
2022-08-02T02:57:02.413Z,4.75
2022-08-02T02:59:29.967Z,5.40
2022-08-02T03:02:08.415Z,4.93
2022-08-02T03:04:55.775Z,4.47
2022-08-02T03:07:24.139Z,4.90
2022-08-02T03:09:55.494Z,4.93
2022-08-02T03:12:31.412Z,4.97
2022-08-02T03:15:03.766Z,5.55
2022-08-02T03:17:46.459Z,5.55
2022-08-02T03:20:16.664Z,5.40
2022-08-02T03:22:46.815Z,5.35
2022-08-02T03:25:14.120Z,5.65
2022-08-02T03:27:44.485Z,5.82
2022-08-02T03:30:13.054Z,5.65
2022-08-02T03:32:41.724Z,5.82
2022-08-02T03:35:12.957Z,6.88
2022-08-02T03:37:39.690Z,5.63
2022-08-02T03:40:09.835Z,6.13
2022-08-02T03:42:40.220Z,5.10
2022-08-02T03:45:11.649Z,6.30
2022-08-02T03:47:39.202Z,6.18
2022-08-02T03:50:08.373Z,6.07
2022-08-02T03:52:39.984Z,5.82
2022-08-02T03:55:07.381Z,6.22
2022-08-02T03:57:36.513Z,6.32
2022-08-02T04:00:04.343Z,5.90
2022-08-02T04:02:31.085Z,6.07
2022-08-02T04:04:59.216Z,6.00
2022-08-02T04:08:33.919Z,5.88
2022-08-02T04:10:13.471Z,6.50
2022-08-02T04:12:43.189Z,6.75
2022-08-02T04:15:10.618Z,5.75
2022-08-02T04:17:48.168Z,6.80
2022-08-02T04:20:30.088Z,6.20
2022-08-02T04:23:06.597Z,6.47
2022-08-02T04:25:35.744Z,7.28
2022-08-02T04:28:17.260Z,8.70
2022-08-02T04:30:46.456Z,6.50
2022-08-02T04:33:13.988Z,6.38
2022-08-02T04:35:40.792Z,6.28
2022-08-02T04:38:09.254Z,6.95
2022-08-02T04:40:38.074Z,6.97
2022-08-02T04:43:05.838Z,6.68
2022-08-02T04:45:32.985Z,7.03
2022-08-02T04:48:07.663Z,7.38
2022-08-02T04:50:37.086Z,6.88
2022-08-02T04:53:06.348Z,6.55
2022-08-02T04:55:33.139Z,6.80
2022-08-02T04:58:06.737Z,6.20
2022-08-02T05:00:41.320Z,6.00
2022-08-02T05:03:08.868Z,6.28
2022-08-02T05:05:38.013Z,6.13
2022-08-02T05:08:06.054Z,5.95
2022-08-02T05:10:33.987Z,5.70
2022-08-02T05:13:03.544Z,6.10
2022-08-02T05:15:33.390Z,5.40
2022-08-02T05:18:00.805Z,5.60
2022-08-02T05:20:30.649Z,5.50
2022-08-02T05:22:57.850Z,5.70
2022-08-02T05:25:25.644Z,5.80
2022-08-02T05:27:53.163Z,5.57
2022-08-02T05:30:20.840Z,5.47
2022-08-02T05:32:49.134Z,6.68
2022-08-02T05:35:23.059Z,6.35
2022-08-02T05:37:51.013Z,5.93
2022-08-02T05:40:18.396Z,5.75
2022-08-02T05:42:52.811Z,4.88
2022-08-02T05:45:20.061Z,4.43
2022-08-02T05:47:47.574Z,4.90
2022-08-02T05:50:15.281Z,5.13
2022-08-02T05:52:47.144Z,4.13
2022-08-02T05:55:28.098Z,4.15
2022-08-02T05:58:49.541Z,4.15
2022-08-02T06:01:18.922Z,4.22
2022-08-02T06:03:52.212Z,4.15
2022-08-02T06:06:23.315Z,3.90
2022-08-02T06:08:54.232Z,3.70
2022-08-02T06:11:25.449Z,3.60
2022-08-02T06:13:52.650Z,4.20
2022-08-02T06:16:31.916Z,4.05
2022-08-02T06:19:00.616Z,4.18
2022-08-02T06:22:32.599Z,3.97
2022-08-02T06:24:15.266Z,3.97
2022-08-02T06:26:42.407Z,3.95
2022-08-02T06:29:09.564Z,4.70
2022-08-02T06:31:36.723Z,4.45
2022-08-02T06:34:03.938Z,4.00
2022-08-02T06:36:40.955Z,4.25
2022-08-02T06:39:08.141Z,3.58
2022-08-02T06:41:41.024Z,3.72
2022-08-02T06:44:40.542Z,3.90
2022-08-02T06:47:10.315Z,3.97
2022-08-02T06:49:52.108Z,3.90
2022-08-02T06:52:26.897Z,3.47
2022-08-02T06:54:56.714Z,4.07
2022-08-02T06:57:24.250Z,3.40
2022-08-02T06:59:53.988Z,3.35
2022-08-02T07:02:23.896Z,3.60
2022-08-02T07:04:55.589Z,3.28
2022-08-02T07:07:22.747Z,3.28
2022-08-02T07:10:00.258Z,2.80
2022-08-02T07:12:31.663Z,2.97
2022-08-02T07:14:59.818Z,2.88
2022-08-02T07:17:27.118Z,3.17
2022-08-02T07:19:54.348Z,3.03
2022-08-02T07:22:23.600Z,2.90
2022-08-02T07:24:51.463Z,2.40
2022-08-02T07:27:18.911Z,2.75
2022-08-02T07:29:47.086Z,2.30
2022-08-02T07:32:20.314Z,2.20
2022-08-02T07:34:52.661Z,2.50
2022-08-02T07:37:51.092Z,2.20
2022-08-02T07:40:31.316Z,2.10
2022-08-02T07:43:03.366Z,1.90
2022-08-02T07:45:31.855Z,1.65
2022-08-02T07:48:05.434Z,1.90
2022-08-02T07:50:33.017Z,2.30
2022-08-02T07:53:08.494Z,1.92
2022-08-02T07:55:39.824Z,1.98
2022-08-02T07:58:11.195Z,1.98
2022-08-02T08:00:43.693Z,2.05
2022-08-02T08:03:11.396Z,1.98
2022-08-02T08:05:41.184Z,2.17
2022-08-02T08:08:09.418Z,1.73
2022-08-02T08:10:38.374Z,1.80
2022-08-02T08:13:05.556Z,1.80
2022-08-02T08:15:38.122Z,2.00
2022-08-02T08:18:17.250Z,2.20
2022-08-02T08:20:44.412Z,1.70
2022-08-02T08:23:11.602Z,1.80
2022-08-02T08:25:42.224Z,1.90
2022-08-02T08:28:09.542Z,2.10
2022-08-02T08:30:36.678Z,1.98
2022-08-02T08:33:04.535Z,1.80
2022-08-02T08:35:31.306Z,2.05
2022-08-02T08:37:58.491Z,2.00
2022-08-02T08:40:26.087Z,1.70
2022-08-02T08:42:55.729Z,1.95
2022-08-02T08:45:22.531Z,1.70
2022-08-02T08:47:56.045Z,1.92
2022-08-02T08:50:25.811Z,2.10
2022-08-02T08:53:08.788Z,2.17
2022-08-02T08:55:39.347Z,2.30
2022-08-02T08:58:06.211Z,2.28
2022-08-02T09:00:34.641Z,2.00
2022-08-02T09:03:08.598Z,2.33
2022-08-02T09:05:36.778Z,2.22
2022-08-02T09:08:03.913Z,2.30
2022-08-02T09:10:36.585Z,2.20
2022-08-02T09:13:38.310Z,2.47
2022-08-02T09:16:11.454Z,1.92
2022-08-02T09:18:40.630Z,2.25
2022-08-02T09:21:11.211Z,2.58
2022-08-02T09:23:40.071Z,1.90
2022-08-02T09:26:10.798Z,6.10
2022-08-02T09:28:39.556Z,2.60
2022-08-02T09:31:14.096Z,2.13
2022-08-02T09:33:42.070Z,1.90
2022-08-02T09:36:12.889Z,1.92
2022-08-02T09:38:40.913Z,2.08
2022-08-02T09:41:22.493Z,2.13
2022-08-02T09:44:03.365Z,2.22
2022-08-02T09:46:42.882Z,2.05
2022-08-02T09:49:14.695Z,2.10
2022-08-02T09:51:52.835Z,2.13
2022-08-02T09:54:28.733Z,2.30
2022-08-02T09:56:56.256Z,2.30
2022-08-02T09:59:27.011Z,2.33
2022-08-02T10:01:58.975Z,2.22
2022-08-02T10:04:34.151Z,2.03
2022-08-02T10:07:04.297Z,2.53
2022-08-02T10:09:31.653Z,2.55
2022-08-02T10:12:04.756Z,2.53
2022-08-02T10:14:34.772Z,2.67
2022-08-02T10:17:05.182Z,2.88
2022-08-02T10:20:01.289Z,2.25
2022-08-02T10:22:24.812Z,2.30
2022-08-02T10:24:52.084Z,2.17
2022-08-02T10:27:20.415Z,2.20
2022-08-02T10:29:54.164Z,2.42
2022-08-02T10:32:36.586Z,2.20
2022-08-02T10:35:20.166Z,2.58
2022-08-02T10:38:04.462Z,2.40
2022-08-02T10:40:50.924Z,2.15
2022-08-02T10:43:38.804Z,2.33
2022-08-02T10:46:26.602Z,2.30
2022-08-02T10:52:10.569Z,2.60
2022-08-02T10:54:42.752Z,3.50
2022-08-02T10:57:36.617Z,2.42
2022-08-02T11:00:24.592Z,2.38
2022-08-02T11:02:53.354Z,2.45
2022-08-02T11:05:43.151Z,2.55
2022-08-02T11:08:25.047Z,2.45
2022-08-02T11:10:52.209Z,2.80
2022-08-02T11:13:21.787Z,2.70
2022-08-02T11:15:52.565Z,2.60
2022-08-02T11:18:22.873Z,2.92
2022-08-02T11:21:24.758Z,2.88
2022-08-02T11:23:54.112Z,2.67
2022-08-02T11:26:33.042Z,3.10
2022-08-02T11:29:03.133Z,2.85
2022-08-02T11:31:30.687Z,2.90
2022-08-02T11:34:09.191Z,2.60
2022-08-02T11:36:49.717Z,2.70
2022-08-02T11:39:19.636Z,3.30
2022-08-02T11:41:55.660Z,3.08
2022-08-02T11:44:25.397Z,2.92
2022-08-02T11:47:00.055Z,3.10
2022-08-02T11:49:27.944Z,3.10
2022-08-02T11:51:55.203Z,3.20
2022-08-02T11:54:36.022Z,3.50
2022-08-02T11:57:19.686Z,3.03
2022-08-02T11:59:58.270Z,3.25
2022-08-02T12:02:35.304Z,3.63
2022-08-02T12:05:08.932Z,4.20
2022-08-02T12:07:45.905Z,3.30
2022-08-02T12:10:19.206Z,4.03
2022-08-02T12:12:56.483Z,3.22
2022-08-02T12:15:45.202Z,3.38
2022-08-02T12:18:30.983Z,3.20
2022-08-02T12:20:58.735Z,3.03
2022-08-02T12:23:26.108Z,3.40
2022-08-02T12:26:15.810Z,2.92
2022-08-02T12:28:43.929Z,3.08
2022-08-02T12:31:14.095Z,3.20
2022-08-02T12:33:48.930Z,2.95
2022-08-02T12:36:30.011Z,2.67
2022-08-02T12:39:00.749Z,2.80
2022-08-02T12:41:31.354Z,2.50
2022-08-02T12:43:59.790Z,3.10
2022-08-02T12:46:29.674Z,2.80
2022-08-02T12:49:16.517Z,2.63
2022-08-02T12:51:56.269Z,2.88
2022-08-02T12:54:32.748Z,2.60
2022-08-02T12:57:12.748Z,2.63
2022-08-02T12:59:42.403Z,2.88
2022-08-02T13:02:38.222Z,3.00
2022-08-02T13:05:06.242Z,2.53
2022-08-02T13:07:34.041Z,2.83
2022-08-02T13:10:03.008Z,2.80
2022-08-02T13:12:30.595Z,2.45
2022-08-02T13:15:50.454Z,2.42
2022-08-02T13:18:01.336Z,2.58
2022-08-02T13:20:28.582Z,2.83
2022-08-02T13:22:56.767Z,2.53
2022-08-02T13:25:32.365Z,2.80
2022-08-02T13:28:01.620Z,2.75
2022-08-02T13:30:31.628Z,2.70
2022-08-02T13:33:01.103Z,3.45
2022-08-02T13:35:28.975Z,3.17
2022-08-02T13:37:58.397Z,3.20
2022-08-02T13:40:25.713Z,2.80
2022-08-02T13:42:55.161Z,3.35
2022-08-02T13:45:22.326Z,3.40
2022-08-02T13:48:03.900Z,8.13
2022-08-02T13:50:32.806Z,6.20
2022-08-02T13:53:00.386Z,3.35
2022-08-02T13:55:28.221Z,4.40
2022-08-02T13:57:55.540Z,11.45
2022-08-02T14:00:35.267Z,9.80
2022-08-02T14:03:03.669Z,7.35
2022-08-02T14:05:39.228Z,5.10
2022-08-02T14:08:16.984Z,8.30
2022-08-02T14:10:44.565Z,7.75
2022-08-02T14:13:11.299Z,4.65
2022-08-02T14:15:38.489Z,3.47
2022-08-02T14:18:05.645Z,3.28
2022-08-02T14:20:35.356Z,3.42
2022-08-02T14:23:04.307Z,4.65
2022-08-02T14:25:31.552Z,3.17
2022-08-02T14:27:58.728Z,4.15
2022-08-02T14:30:28.162Z,3.97
2022-08-02T14:33:04.635Z,2.90
2022-08-02T14:35:31.819Z,2.20
2022-08-02T14:37:59.439Z,2.00
2022-08-02T14:40:31.417Z,2.22
2022-08-02T14:43:00.054Z,2.42
2022-08-02T14:45:39.740Z,3.50
2022-08-02T14:48:11.040Z,3.60
2022-08-02T14:50:40.500Z,2.85
2022-08-02T14:53:11.964Z,2.20
2022-08-02T14:55:40.047Z,2.58
2022-08-02T14:58:07.293Z,2.53
2022-08-02T15:00:40.078Z,2.60
2022-08-02T15:03:09.099Z,2.90
2022-08-02T15:05:36.839Z,2.67
2022-08-02T15:08:06.590Z,3.30
2022-08-02T15:10:34.148Z,2.80
2022-08-02T15:13:01.318Z,3.22
2022-08-02T15:15:28.468Z,2.80
2022-08-02T15:17:55.883Z,3.40
2022-08-02T15:20:25.684Z,3.28
2022-08-02T15:22:53.857Z,2.80
2022-08-02T15:25:21.439Z,2.38
2022-08-02T15:27:49.103Z,2.63
2022-08-02T15:30:19.376Z,2.72
2022-08-02T15:32:52.901Z,2.90
2022-08-02T15:35:21.053Z,3.08
2022-08-02T15:37:48.650Z,2.70
2022-08-02T15:40:15.966Z,3.22
2022-08-02T15:42:46.038Z,3.13
2022-08-02T15:45:15.937Z,2.95
2022-08-02T15:47:50.373Z,2.70
2022-08-02T15:50:18.436Z,3.28
2022-08-02T15:52:46.067Z,2.60
2022-08-02T15:55:13.338Z,3.00
2022-08-02T15:57:40.524Z,2.92
2022-08-02T16:00:18.071Z,3.40
2022-08-02T16:02:47.490Z,2.88
2022-08-02T16:05:15.474Z,3.28
2022-08-02T16:07:45.746Z,3.40
2022-08-02T16:10:15.316Z,3.30
2022-08-02T16:12:42.942Z,2.97
2022-08-02T16:15:10.249Z,2.90
2022-08-02T16:17:53.646Z,3.33
2022-08-02T16:20:22.384Z,2.72
2022-08-02T16:22:50.374Z,3.08
2022-08-02T16:25:18.004Z,3.00
2022-08-02T16:28:06.130Z,2.80
2022-08-02T16:30:34.953Z,3.17
2022-08-02T16:33:02.607Z,2.72
2022-08-02T16:35:30.496Z,2.92
2022-08-02T16:37:57.643Z,2.90
2022-08-02T16:40:27.266Z,3.25
2022-08-02T16:42:54.467Z,2.92
2022-08-02T16:45:22.439Z,3.15
2022-08-02T16:47:56.066Z,2.80
2022-08-02T16:50:29.540Z,3.05
2022-08-02T16:52:58.007Z,3.33
2022-08-02T16:55:30.557Z,2.80
2022-08-02T16:57:58.477Z,2.55
2022-08-02T17:00:26.463Z,2.95
2022-08-02T17:02:54.009Z,2.80
2022-08-02T17:05:35.896Z,2.90
2022-08-02T17:08:07.232Z,3.20
2022-08-02T17:10:46.765Z,2.70
2022-08-02T17:13:16.265Z,2.70
2022-08-02T17:16:16.969Z,2.60
2022-08-02T17:18:32.063Z,3.05
2022-08-02T17:21:04.145Z,3.15
2022-08-02T17:24:06.036Z,2.85
2022-08-02T17:26:18.571Z,2.75
2022-08-02T17:29:14.209Z,2.90
2022-08-02T17:31:42.424Z,3.00
2022-08-02T17:34:10.964Z,2.92
2022-08-02T17:36:40.951Z,2.85
2022-08-02T17:39:08.730Z,3.10
2022-08-02T17:41:49.275Z,2.70
2022-08-02T17:44:37.100Z,2.65
2022-08-02T17:47:06.572Z,2.38
2022-08-02T17:49:34.682Z,2.58
2022-08-02T17:52:48.662Z,2.60
2022-08-02T17:54:54.268Z,2.80
2022-08-02T17:57:21.447Z,3.25
2022-08-02T18:00:04.158Z,2.75
2022-08-02T18:02:32.064Z,2.75
2022-08-02T18:05:01.508Z,2.90
2022-08-02T18:07:43.294Z,3.13
2022-08-02T18:10:20.529Z,4.30
2022-08-02T18:12:48.099Z,3.97
2022-08-02T18:15:16.259Z,3.28
2022-08-02T18:17:47.510Z,2.80
2022-08-02T18:20:21.869Z,3.22
2022-08-02T18:22:55.711Z,2.78
2022-08-02T18:25:36.835Z,3.10
2022-08-02T18:28:11.551Z,3.20
2022-08-02T18:30:39.068Z,3.00
2022-08-02T18:33:56.813Z,2.90
2022-08-02T18:38:45.791Z,2.90
2022-08-02T18:41:14.841Z,3.13
2022-08-02T18:46:32.581Z,3.25
2022-08-02T18:49:06.570Z,2.90
2022-08-02T18:51:40.907Z,3.40
2022-08-02T18:54:08.619Z,2.78
2022-08-02T18:56:39.125Z,3.97
2022-08-02T18:59:07.690Z,3.40
2022-08-02T19:01:46.602Z,3.63
2022-08-02T19:04:27.453Z,3.88
2022-08-02T19:06:54.906Z,3.70
2022-08-02T19:09:24.545Z,6.10
2022-08-02T19:11:55.473Z,5.50
2022-08-02T19:14:27.826Z,3.97
2022-08-02T19:17:00.429Z,4.72
2022-08-02T19:19:44.155Z,4.57
2022-08-02T19:22:17.560Z,4.53
2022-08-02T19:24:51.827Z,4.78
2022-08-02T19:27:26.044Z,4.18
2022-08-02T19:30:00.211Z,4.18
2022-08-02T19:32:39.974Z,4.55
2022-08-02T19:35:19.230Z,4.28
2022-08-02T19:37:59.271Z,5.13
2022-08-02T19:40:29.659Z,5.43
2022-08-02T19:44:23.584Z,5.15
2022-08-02T19:45:50.703Z,5.55
2022-08-02T19:48:24.079Z,4.47
2022-08-02T19:50:56.178Z,4.80
2022-08-02T19:53:28.597Z,5.15
2022-08-02T19:56:02.803Z,4.82
2022-08-02T19:58:36.711Z,4.57
2022-08-02T20:01:04.137Z,4.93
2022-08-02T20:03:51.305Z,4.75
2022-08-02T20:06:18.902Z,4.65
2022-08-02T20:08:53.278Z,4.75
2022-08-02T20:11:24.521Z,5.10
2022-08-02T20:13:52.649Z,4.88
2022-08-02T20:16:27.400Z,5.10
2022-08-02T20:18:56.086Z,4.18
2022-08-02T20:21:34.280Z,4.75
2022-08-02T20:24:03.046Z,4.85
2022-08-02T20:26:31.478Z,5.03
2022-08-02T20:29:02.763Z,4.32
2022-08-02T20:31:30.444Z,4.78
2022-08-02T20:33:57.766Z,5.38
2022-08-02T20:36:27.931Z,5.80
2022-08-02T20:38:57.304Z,5.30
2022-08-02T20:41:36.429Z,5.75
2022-08-02T20:44:04.622Z,5.55
2022-08-02T20:46:42.692Z,5.63
2022-08-02T20:49:21.684Z,5.15
2022-08-02T20:51:54.846Z,5.50
2022-08-02T20:54:25.435Z,5.55
2022-08-02T20:56:52.977Z,5.38
2022-08-02T20:59:21.122Z,5.82
2022-08-02T21:01:56.745Z,5.80
2022-08-02T21:04:24.970Z,5.95
2022-08-02T21:06:52.287Z,5.97
2022-08-02T21:09:19.436Z,5.60
2022-08-02T21:12:00.265Z,6.22
2022-08-02T21:14:27.055Z,5.95
2022-08-02T21:16:56.733Z,5.68
2022-08-02T21:19:24.538Z,5.32
2022-08-02T21:21:53.877Z,6.25
2022-08-02T21:24:24.535Z,6.20
2022-08-02T21:26:51.571Z,5.60
2022-08-02T21:29:19.560Z,5.75
2022-08-02T21:31:47.108Z,6.20
2022-08-02T21:34:22.507Z,6.13
2022-08-02T21:36:54.499Z,5.55
2022-08-02T21:39:24.469Z,5.75
2022-08-02T21:41:53.696Z,6.13
2022-08-02T21:44:26.105Z,5.95
2022-08-02T21:46:56.650Z,5.88
2022-08-02T21:49:41.002Z,5.65
2022-08-02T21:52:14.296Z,5.47
2022-08-02T21:54:45.621Z,5.80
2022-08-02T21:57:16.064Z,5.93
2022-08-02T21:59:46.991Z,6.10
2022-08-02T22:02:18.155Z,6.10
2022-08-02T22:04:48.396Z,5.93
2022-08-02T22:10:09.265Z,6.05
2022-08-02T22:12:36.537Z,6.00
2022-08-02T22:15:06.163Z,5.93
2022-08-02T22:17:53.532Z,6.07
2022-08-02T22:20:23.987Z,6.72
2022-08-02T22:22:52.175Z,6.50
2022-08-02T22:25:36.197Z,6.65
2022-08-02T22:28:37.344Z,6.40
2022-08-02T22:31:04.434Z,6.00
2022-08-02T22:34:00.763Z,6.20
2022-08-02T22:36:29.726Z,6.68
2022-08-02T22:38:56.974Z,6.15
2022-08-02T22:42:05.514Z,6.07
2022-08-02T22:44:18.428Z,6.13
2022-08-02T22:46:50.239Z,6.72
2022-08-02T22:49:37.154Z,6.35
2022-08-02T22:52:07.193Z,6.22
2022-08-02T22:57:29.871Z,6.07
2022-08-02T22:58:44.950Z,3.50
2022-08-02T22:58:59.610Z,3.05
2022-08-02T22:59:04.102Z,6.13
2022-08-02T22:59:58.817Z,6.40
2022-08-02T23:02:25.625Z,6.38
2022-08-02T23:04:54.921Z,6.35
2022-08-02T23:07:22.155Z,6.35
2022-08-02T23:09:51.385Z,6.47
2022-08-02T23:12:19.850Z,6.70
2022-08-02T23:14:50.303Z,6.22
2022-08-02T23:17:38.160Z,5.80
2022-08-02T23:20:06.645Z,6.05
2022-08-02T23:22:36.117Z,6.47
2022-08-02T23:25:03.520Z,6.88
2022-08-02T23:27:31.066Z,6.20
2022-08-02T23:30:00.713Z,6.05
2022-08-02T23:32:30.111Z,6.05
2022-08-02T23:34:57.546Z,6.28
2022-08-02T23:37:24.835Z,5.95
2022-08-02T23:39:52.146Z,6.45
2022-08-02T23:42:19.302Z,6.95
2022-08-02T23:44:48.739Z,6.85
2022-08-02T23:47:17.094Z,6.72
2022-08-02T23:49:44.135Z,6.43
2022-08-02T23:52:11.314Z,6.18
2022-08-02T23:54:40.725Z,6.50
2022-08-02T23:57:20.921Z,6.07
2022-08-02T23:59:48.901Z,6.65
